sensor_id;sensor_type;location;lat;lon;timestamp;P1;durP1;ratioP1;P2;durP2;ratioP2
71360;SDS011;59166;48.908;1.870;2023-09-08T00:00:57;10.60;;;6.07;;
71360;SDS011;59166;48.908;1.870;2023-09-08T00:05:58;10.73;;;6.05;;
71360;SDS011;59166;48.908;1.870;2023-09-08T00:10:59;10.77;;;5.80;;
71360;SDS011;59166;48.908;1.870;2023-09-08T00:16:01;12.90;;;6.23;;
71360;SDS011;59166;48.908;1.870;2023-09-08T00:21:02;12.23;;;6.57;;
71360;SDS011;59166;48.908;1.870;2023-09-08T00:26:02;12.70;;;6.57;;
71360;SDS011;59166;48.908;1.870;2023-09-08T00:31:05;12.87;;;6.23;;
71360;SDS011;59166;48.908;1.870;2023-09-08T00:36:05;13.70;;;6.43;;
71360;SDS011;59166;48.908;1.870;2023-09-08T00:41:06;13.55;;;6.10;;
71360;SDS011;59166;48.908;1.870;2023-09-08T00:46:09;12.13;;;6.10;;
71360;SDS011;59166;48.908;1.870;2023-09-08T00:51:10;15.60;;;6.10;;
71360;SDS011;59166;48.908;1.870;2023-09-08T00:56:11;14.43;;;5.93;;
71360;SDS011;59166;48.908;1.870;2023-09-08T01:01:13;13.77;;;6.00;;
71360;SDS011;59166;48.908;1.870;2023-09-08T01:06:14;12.15;;;5.95;;
71360;SDS011;59166;48.908;1.870;2023-09-08T01:11:15;9.67;;;5.70;;
71360;SDS011;59166;48.908;1.870;2023-09-08T01:16:18;10.67;;;6.20;;
71360;SDS011;59166;48.908;1.870;2023-09-08T01:21:30;12.07;;;6.38;;
71360;SDS011;59166;48.908;1.870;2023-09-08T01:26:54;13.52;;;6.22;;
71360;SDS011;59166;48.908;1.870;2023-09-08T01:31:56;12.53;;;6.27;;
71360;SDS011;59166;48.908;1.870;2023-09-08T01:36:57;11.23;;;6.05;;
71360;SDS011;59166;48.908;1.870;2023-09-08T01:41:59;11.43;;;6.13;;
71360;SDS011;59166;48.908;1.870;2023-09-08T01:47:00;11.63;;;5.90;;
71360;SDS011;59166;48.908;1.870;2023-09-08T01:52:00;13.33;;;6.67;;
71360;SDS011;59166;48.908;1.870;2023-09-08T01:57:03;10.80;;;6.13;;
71360;SDS011;59166;48.908;1.870;2023-09-08T02:02:04;13.50;;;6.40;;
71360;SDS011;59166;48.908;1.870;2023-09-08T02:07:04;10.67;;;5.90;;
71360;SDS011;59166;48.908;1.870;2023-09-08T02:12:07;10.83;;;6.17;;
71360;SDS011;59166;48.908;1.870;2023-09-08T02:17:07;11.32;;;5.63;;
71360;SDS011;59166;48.908;1.870;2023-09-08T02:22:08;10.07;;;5.60;;
71360;SDS011;59166;48.908;1.870;2023-09-08T02:27:11;13.13;;;5.57;;
71360;SDS011;59166;48.908;1.870;2023-09-08T02:32:11;10.45;;;5.32;;
71360;SDS011;59166;48.908;1.870;2023-09-08T02:37:12;12.00;;;5.70;;
71360;SDS011;59166;48.908;1.870;2023-09-08T02:42:14;11.67;;;5.37;;
71360;SDS011;59166;48.908;1.870;2023-09-08T02:47:15;10.38;;;5.07;;
71360;SDS011;59166;48.908;1.870;2023-09-08T02:52:15;10.57;;;5.60;;
71360;SDS011;59166;48.908;1.870;2023-09-08T02:57:17;11.88;;;5.65;;
71360;SDS011;59166;48.908;1.870;2023-09-08T03:02:18;10.60;;;5.40;;
71360;SDS011;59166;48.908;1.870;2023-09-08T03:07:19;11.93;;;5.53;;
71360;SDS011;59166;48.908;1.870;2023-09-08T03:12:21;9.97;;;5.20;;
71360;SDS011;59166;48.908;1.870;2023-09-08T03:17:22;11.25;;;5.35;;
71360;SDS011;59166;48.908;1.870;2023-09-08T03:22:22;11.03;;;5.03;;
71360;SDS011;59166;48.908;1.870;2023-09-08T03:27:24;10.55;;;5.13;;
71360;SDS011;59166;48.908;1.870;2023-09-08T03:32:25;9.57;;;5.20;;
71360;SDS011;59166;48.908;1.870;2023-09-08T03:37:26;10.27;;;4.63;;
71360;SDS011;59166;48.908;1.870;2023-09-08T03:42:28;10.17;;;5.00;;
71360;SDS011;59166;48.908;1.870;2023-09-08T03:47:28;8.90;;;4.50;;
71360;SDS011;59166;48.908;1.870;2023-09-08T03:52:29;10.00;;;5.03;;
71360;SDS011;59166;48.908;1.870;2023-09-08T03:57:31;10.13;;;4.37;;
71360;SDS011;59166;48.908;1.870;2023-09-08T04:02:32;9.25;;;4.40;;
71360;SDS011;59166;48.908;1.870;2023-09-08T04:07:32;13.67;;;4.70;;
71360;SDS011;59166;48.908;1.870;2023-09-08T04:12:34;12.23;;;4.68;;
71360;SDS011;59166;48.908;1.870;2023-09-08T04:17:35;9.13;;;4.33;;
71360;SDS011;59166;48.908;1.870;2023-09-08T04:22:36;10.27;;;4.38;;
71360;SDS011;59166;48.908;1.870;2023-09-08T04:27:38;11.00;;;5.10;;
71360;SDS011;59166;48.908;1.870;2023-09-08T04:32:39;11.40;;;5.60;;
71360;SDS011;59166;48.908;1.870;2023-09-08T04:37:40;11.10;;;5.30;;
71360;SDS011;59166;48.908;1.870;2023-09-08T04:42:42;15.13;;;6.45;;
71360;SDS011;59166;48.908;1.870;2023-09-08T04:47:42;10.10;;;6.00;;
71360;SDS011;59166;48.908;1.870;2023-09-08T04:52:43;11.05;;;6.40;;
71360;SDS011;59166;48.908;1.870;2023-09-08T04:57:45;14.03;;;6.47;;
71360;SDS011;59166;48.908;1.870;2023-09-08T05:02:46;12.50;;;6.32;;
71360;SDS011;59166;48.908;1.870;2023-09-08T05:07:47;11.87;;;6.53;;
71360;SDS011;59166;48.908;1.870;2023-09-08T05:12:49;12.80;;;6.30;;
71360;SDS011;59166;48.908;1.870;2023-09-08T05:17:50;11.43;;;6.47;;
71360;SDS011;59166;48.908;1.870;2023-09-08T05:22:51;12.50;;;6.80;;
71360;SDS011;59166;48.908;1.870;2023-09-08T05:27:53;14.30;;;6.93;;
71360;SDS011;59166;48.908;1.870;2023-09-08T05:32:54;13.47;;;7.13;;
71360;SDS011;59166;48.908;1.870;2023-09-08T05:38:01;12.80;;;6.90;;
71360;SDS011;59166;48.908;1.870;2023-09-08T05:43:08;12.13;;;6.50;;
71360;SDS011;59166;48.908;1.870;2023-09-08T05:48:09;12.20;;;6.30;;
71360;SDS011;59166;48.908;1.870;2023-09-08T05:53:16;11.65;;;6.50;;
71360;SDS011;59166;48.908;1.870;2023-09-08T05:58:27;12.20;;;6.78;;
71360;SDS011;59166;48.908;1.870;2023-09-08T06:03:28;12.50;;;6.63;;
71360;SDS011;59166;48.908;1.870;2023-09-08T06:08:30;13.02;;;6.25;;
71360;SDS011;59166;48.908;1.870;2023-09-08T06:13:35;11.52;;;6.53;;
71360;SDS011;59166;48.908;1.870;2023-09-08T06:18:40;12.33;;;5.80;;
71360;SDS011;59166;48.908;1.870;2023-09-08T06:23:44;12.67;;;5.97;;
71360;SDS011;59166;48.908;1.870;2023-09-08T06:28:47;14.35;;;6.57;;
71360;SDS011;59166;48.908;1.870;2023-09-08T06:33:51;18.10;;;6.45;;
71360;SDS011;59166;48.908;1.870;2023-09-08T06:38:52;12.23;;;5.97;;
71360;SDS011;59166;48.908;1.870;2023-09-08T06:43:57;11.05;;;6.00;;
71360;SDS011;59166;48.908;1.870;2023-09-08T06:49:07;11.25;;;5.95;;
71360;SDS011;59166;48.908;1.870;2023-09-08T06:54:17;11.90;;;5.67;;
71360;SDS011;59166;48.908;1.870;2023-09-08T06:59:23;12.82;;;5.63;;
71360;SDS011;59166;48.908;1.870;2023-09-08T07:04:35;12.90;;;6.05;;
71360;SDS011;59166;48.908;1.870;2023-09-08T07:09:53;11.30;;;5.57;;
71360;SDS011;59166;48.908;1.870;2023-09-08T07:15:06;12.67;;;5.70;;
71360;SDS011;59166;48.908;1.870;2023-09-08T07:20:11;13.40;;;5.93;;
71360;SDS011;59166;48.908;1.870;2023-09-08T07:25:15;12.50;;;5.93;;
71360;SDS011;59166;48.908;1.870;2023-09-08T07:30:26;12.90;;;5.83;;
71360;SDS011;59166;48.908;1.870;2023-09-08T07:35:31;11.05;;;6.13;;
71360;SDS011;59166;48.908;1.870;2023-09-08T07:40:37;12.30;;;6.35;;
71360;SDS011;59166;48.908;1.870;2023-09-08T07:45:40;13.23;;;5.70;;
71360;SDS011;59166;48.908;1.870;2023-09-08T07:50:48;13.13;;;6.32;;
71360;SDS011;59166;48.908;1.870;2023-09-08T07:55:52;13.02;;;6.40;;
71360;SDS011;59166;48.908;1.870;2023-09-08T08:01:09;12.80;;;6.43;;
71360;SDS011;59166;48.908;1.870;2023-09-08T08:06:29;11.17;;;6.10;;
71360;SDS011;59166;48.908;1.870;2023-09-08T08:11:31;10.98;;;6.00;;
71360;SDS011;59166;48.908;1.870;2023-09-08T08:16:36;12.85;;;6.30;;
71360;SDS011;59166;48.908;1.870;2023-09-08T08:21:37;12.07;;;5.17;;
71360;SDS011;59166;48.908;1.870;2023-09-08T08:26:39;13.88;;;5.30;;
71360;SDS011;59166;48.908;1.870;2023-09-08T08:31:42;12.95;;;5.30;;
71360;SDS011;59166;48.908;1.870;2023-09-08T08:36:43;10.30;;;4.93;;
71360;SDS011;59166;48.908;1.870;2023-09-08T08:41:44;14.02;;;5.20;;
71360;SDS011;59166;48.908;1.870;2023-09-08T08:46:47;10.95;;;4.85;;
71360;SDS011;59166;48.908;1.870;2023-09-08T08:51:48;14.53;;;5.57;;
71360;SDS011;59166;48.908;1.870;2023-09-08T08:56:51;14.40;;;5.63;;
71360;SDS011;59166;48.908;1.870;2023-09-08T09:01:54;14.00;;;5.40;;
71360;SDS011;59166;48.908;1.870;2023-09-08T09:06:57;12.13;;;5.00;;
71360;SDS011;59166;48.908;1.870;2023-09-08T09:11:58;15.68;;;5.35;;
71360;SDS011;59166;48.908;1.870;2023-09-08T09:17:00;13.43;;;4.88;;
71360;SDS011;59166;48.908;1.870;2023-09-08T09:22:01;16.73;;;4.93;;
71360;SDS011;59166;48.908;1.870;2023-09-08T09:27:02;14.43;;;4.88;;
71360;SDS011;59166;48.908;1.870;2023-09-08T09:32:06;11.93;;;4.80;;
71360;SDS011;59166;48.908;1.870;2023-09-08T09:37:07;12.33;;;4.60;;
71360;SDS011;59166;48.908;1.870;2023-09-08T09:42:09;15.82;;;4.88;;
71360;SDS011;59166;48.908;1.870;2023-09-08T09:47:11;10.93;;;4.83;;
71360;SDS011;59166;48.908;1.870;2023-09-08T09:52:14;15.48;;;4.85;;
71360;SDS011;59166;48.908;1.870;2023-09-08T09:57:21;11.52;;;4.63;;
71360;SDS011;59166;48.908;1.870;2023-09-08T10:02:23;12.60;;;4.90;;
71360;SDS011;59166;48.908;1.870;2023-09-08T10:07:26;12.65;;;4.78;;
71360;SDS011;59166;48.908;1.870;2023-09-08T10:12:26;11.03;;;4.90;;
71360;SDS011;59166;48.908;1.870;2023-09-08T10:17:30;14.63;;;4.88;;
71360;SDS011;59166;48.908;1.870;2023-09-08T10:22:31;11.57;;;4.90;;
71360;SDS011;59166;48.908;1.870;2023-09-08T10:27:33;15.35;;;4.60;;
71360;SDS011;59166;48.908;1.870;2023-09-08T10:32:35;11.80;;;4.60;;
71360;SDS011;59166;48.908;1.870;2023-09-08T10:37:36;10.77;;;4.70;;
71360;SDS011;59166;48.908;1.870;2023-09-08T10:42:38;14.43;;;4.60;;
71360;SDS011;59166;48.908;1.870;2023-09-08T10:47:55;10.25;;;4.72;;
71360;SDS011;59166;48.908;1.870;2023-09-08T10:53:06;14.50;;;4.50;;
71360;SDS011;59166;48.908;1.870;2023-09-08T10:58:09;12.50;;;4.17;;
71360;SDS011;59166;48.908;1.870;2023-09-08T11:03:12;13.27;;;4.10;;
71360;SDS011;59166;48.908;1.870;2023-09-08T11:08:13;11.65;;;4.25;;
71360;SDS011;59166;48.908;1.870;2023-09-08T11:13:14;11.00;;;4.20;;
71360;SDS011;59166;48.908;1.870;2023-09-08T11:18:16;10.02;;;3.90;;
71360;SDS011;59166;48.908;1.870;2023-09-08T11:23:17;10.85;;;3.85;;
71360;SDS011;59166;48.908;1.870;2023-09-08T11:28:18;9.80;;;3.87;;
71360;SDS011;59166;48.908;1.870;2023-09-08T11:33:23;10.75;;;4.00;;
71360;SDS011;59166;48.908;1.870;2023-09-08T11:38:24;12.57;;;3.73;;
71360;SDS011;59166;48.908;1.870;2023-09-08T11:43:26;11.95;;;3.95;;
71360;SDS011;59166;48.908;1.870;2023-09-08T11:48:28;10.77;;;3.90;;
71360;SDS011;59166;48.908;1.870;2023-09-08T11:53:29;14.97;;;3.80;;
71360;SDS011;59166;48.908;1.870;2023-09-08T11:58:29;9.75;;;3.70;;
71360;SDS011;59166;48.908;1.870;2023-09-08T12:03:32;14.93;;;4.13;;
71360;SDS011;59166;48.908;1.870;2023-09-08T12:08:33;12.00;;;4.20;;
71360;SDS011;59166;48.908;1.870;2023-09-08T12:13:33;13.00;;;4.00;;
71360;SDS011;59166;48.908;1.870;2023-09-08T12:18:39;9.33;;;3.80;;
71360;SDS011;59166;48.908;1.870;2023-09-08T12:23:49;10.70;;;3.88;;
71360;SDS011;59166;48.908;1.870;2023-09-08T12:28:51;12.20;;;4.03;;
71360;SDS011;59166;48.908;1.870;2023-09-08T12:33:54;11.10;;;3.90;;
71360;SDS011;59166;48.908;1.870;2023-09-08T12:38:55;10.25;;;3.90;;
71360;SDS011;59166;48.908;1.870;2023-09-08T12:43:55;10.77;;;3.90;;
71360;SDS011;59166;48.908;1.870;2023-09-08T12:48:58;9.90;;;3.90;;
71360;SDS011;59166;48.908;1.870;2023-09-08T12:53:59;11.82;;;3.92;;
71360;SDS011;59166;48.908;1.870;2023-09-08T12:59:00;12.50;;;4.23;;
71360;SDS011;59166;48.908;1.870;2023-09-08T13:04:02;14.43;;;4.20;;
71360;SDS011;59166;48.908;1.870;2023-09-08T13:09:03;9.77;;;4.03;;
71360;SDS011;59166;48.908;1.870;2023-09-08T13:14:04;8.50;;;3.80;;
71360;SDS011;59166;48.908;1.870;2023-09-08T13:19:06;11.00;;;4.20;;
71360;SDS011;59166;48.908;1.870;2023-09-08T13:24:07;10.30;;;3.50;;
71360;SDS011;59166;48.908;1.870;2023-09-08T13:29:08;10.32;;;4.20;;
71360;SDS011;59166;48.908;1.870;2023-09-08T13:34:11;7.78;;;3.70;;
71360;SDS011;59166;48.908;1.870;2023-09-08T13:39:12;9.50;;;3.80;;
71360;SDS011;59166;48.908;1.870;2023-09-08T13:44:12;10.35;;;4.22;;
71360;SDS011;59166;48.908;1.870;2023-09-08T13:49:15;12.83;;;4.03;;
71360;SDS011;59166;48.908;1.870;2023-09-08T13:54:16;8.32;;;3.83;;
71360;SDS011;59166;48.908;1.870;2023-09-08T13:59:17;11.48;;;3.83;;
71360;SDS011;59166;48.908;1.870;2023-09-08T14:04:19;10.17;;;4.00;;
71360;SDS011;59166;48.908;1.870;2023-09-08T14:09:20;9.25;;;4.00;;
71360;SDS011;59166;48.908;1.870;2023-09-08T14:14:21;7.80;;;3.90;;
71360;SDS011;59166;48.908;1.870;2023-09-08T14:19:23;9.48;;;4.07;;
71360;SDS011;59166;48.908;1.870;2023-09-08T14:24:24;10.70;;;4.10;;
71360;SDS011;59166;48.908;1.870;2023-09-08T14:29:25;8.95;;;3.90;;
71360;SDS011;59166;48.908;1.870;2023-09-08T14:34:28;9.50;;;4.10;;
71360;SDS011;59166;48.908;1.870;2023-09-08T14:39:28;12.83;;;4.10;;
71360;SDS011;59166;48.908;1.870;2023-09-08T14:44:29;10.35;;;4.07;;
71360;SDS011;59166;48.908;1.870;2023-09-08T14:49:32;10.73;;;4.07;;
71360;SDS011;59166;48.908;1.870;2023-09-08T14:54:32;9.48;;;3.70;;
71360;SDS011;59166;48.908;1.870;2023-09-08T14:59:33;9.25;;;3.90;;
71360;SDS011;59166;48.908;1.870;2023-09-08T15:04:36;10.60;;;4.00;;
71360;SDS011;59166;48.908;1.870;2023-09-08T15:09:39;9.07;;;3.83;;
71360;SDS011;59166;48.908;1.870;2023-09-08T15:14:40;10.98;;;3.80;;
71360;SDS011;59166;48.908;1.870;2023-09-08T15:19:42;11.27;;;4.10;;
71360;SDS011;59166;48.908;1.870;2023-09-08T15:24:43;8.75;;;3.65;;
71360;SDS011;59166;48.908;1.870;2023-09-08T15:29:44;8.80;;;4.10;;
71360;SDS011;59166;48.908;1.870;2023-09-08T15:34:48;10.27;;;4.00;;
71360;SDS011;59166;48.908;1.870;2023-09-08T15:39:49;10.88;;;4.40;;
71360;SDS011;59166;48.908;1.870;2023-09-08T15:44:49;12.07;;;4.30;;
71360;SDS011;59166;48.908;1.870;2023-09-08T15:49:52;10.18;;;4.20;;
71360;SDS011;59166;48.908;1.870;2023-09-08T15:54:53;10.85;;;4.13;;
71360;SDS011;59166;48.908;1.870;2023-09-08T15:59:53;9.47;;;4.07;;
71360;SDS011;59166;48.908;1.870;2023-09-08T16:04:56;14.50;;;3.90;;
71360;SDS011;59166;48.908;1.870;2023-09-08T16:09:57;9.20;;;4.30;;
71360;SDS011;59166;48.908;1.870;2023-09-08T16:14:58;10.50;;;4.20;;
71360;SDS011;59166;48.908;1.870;2023-09-08T16:20:00;10.77;;;4.07;;
71360;SDS011;59166;48.908;1.870;2023-09-08T16:25:01;9.45;;;4.00;;
71360;SDS011;59166;48.908;1.870;2023-09-08T16:30:02;10.65;;;4.07;;
71360;SDS011;59166;48.908;1.870;2023-09-08T16:35:05;11.63;;;4.10;;
71360;SDS011;59166;48.908;1.870;2023-09-08T16:40:07;9.95;;;4.00;;
71360;SDS011;59166;48.908;1.870;2023-09-08T16:45:08;7.55;;;3.88;;
71360;SDS011;59166;48.908;1.870;2023-09-08T16:50:11;9.17;;;3.80;;
71360;SDS011;59166;48.908;1.870;2023-09-08T16:55:12;9.60;;;3.70;;
71360;SDS011;59166;48.908;1.870;2023-09-08T17:00:13;12.27;;;4.10;;
71360;SDS011;59166;48.908;1.870;2023-09-08T17:05:15;9.07;;;3.77;;
71360;SDS011;59166;48.908;1.870;2023-09-08T17:10:16;12.40;;;3.95;;
71360;SDS011;59166;48.908;1.870;2023-09-08T17:15:17;9.65;;;3.85;;
71360;SDS011;59166;48.908;1.870;2023-09-08T17:20:20;9.00;;;4.23;;
71360;SDS011;59166;48.908;1.870;2023-09-08T17:25:20;8.68;;;3.80;;
71360;SDS011;59166;48.908;1.870;2023-09-08T17:30:21;12.30;;;4.10;;
71360;SDS011;59166;48.908;1.870;2023-09-08T17:35:24;9.80;;;4.10;;
71360;SDS011;59166;48.908;1.870;2023-09-08T17:40:24;10.32;;;4.07;;
71360;SDS011;59166;48.908;1.870;2023-09-08T17:45:25;9.10;;;4.30;;
71360;SDS011;59166;48.908;1.870;2023-09-08T17:50:28;10.73;;;3.95;;
71360;SDS011;59166;48.908;1.870;2023-09-08T17:55:29;9.30;;;4.13;;
71360;SDS011;59166;48.908;1.870;2023-09-08T18:00:29;9.55;;;4.60;;
71360;SDS011;59166;48.908;1.870;2023-09-08T18:05:32;11.00;;;4.90;;
71360;SDS011;59166;48.908;1.870;2023-09-08T18:10:32;13.50;;;4.40;;
71360;SDS011;59166;48.908;1.870;2023-09-08T18:15:33;11.67;;;4.20;;
71360;SDS011;59166;48.908;1.870;2023-09-08T18:20:35;9.80;;;4.13;;
71360;SDS011;59166;48.908;1.870;2023-09-08T18:25:36;9.43;;;4.30;;
71360;SDS011;59166;48.908;1.870;2023-09-08T18:30:37;11.63;;;4.80;;
71360;SDS011;59166;48.908;1.870;2023-09-08T18:35:42;9.43;;;4.47;;
71360;SDS011;59166;48.908;1.870;2023-09-08T18:40:43;13.32;;;6.00;;
71360;SDS011;59166;48.908;1.870;2023-09-08T18:45:44;21.70;;;12.33;;
71360;SDS011;59166;48.908;1.870;2023-09-08T18:50:47;19.27;;;9.65;;
71360;SDS011;59166;48.908;1.870;2023-09-08T18:55:48;12.98;;;5.28;;
71360;SDS011;59166;48.908;1.870;2023-09-08T19:00:49;11.03;;;4.77;;
71360;SDS011;59166;48.908;1.870;2023-09-08T19:05:51;9.95;;;4.90;;
71360;SDS011;59166;48.908;1.870;2023-09-08T19:10:52;12.30;;;5.03;;
71360;SDS011;59166;48.908;1.870;2023-09-08T19:15:53;10.90;;;5.00;;
71360;SDS011;59166;48.908;1.870;2023-09-08T19:20:55;10.67;;;4.73;;
71360;SDS011;59166;48.908;1.870;2023-09-08T19:25:56;11.65;;;4.90;;
71360;SDS011;59166;48.908;1.870;2023-09-08T19:30:57;10.30;;;4.20;;
71360;SDS011;59166;48.908;1.870;2023-09-08T19:35:59;8.70;;;4.03;;
71360;SDS011;59166;48.908;1.870;2023-09-08T19:41:00;8.75;;;4.03;;
71360;SDS011;59166;48.908;1.870;2023-09-08T19:46:02;10.53;;;4.17;;
71360;SDS011;59166;48.908;1.870;2023-09-08T19:51:05;10.23;;;4.00;;
71360;SDS011;59166;48.908;1.870;2023-09-08T19:56:06;8.70;;;4.18;;
71360;SDS011;59166;48.908;1.870;2023-09-08T20:01:08;10.68;;;4.00;;
71360;SDS011;59166;48.908;1.870;2023-09-08T20:06:14;8.73;;;3.90;;
71360;SDS011;59166;48.908;1.870;2023-09-08T20:11:15;12.23;;;4.20;;
71360;SDS011;59166;48.908;1.870;2023-09-08T20:16:16;9.57;;;3.80;;
71360;SDS011;59166;48.908;1.870;2023-09-08T20:21:18;8.67;;;3.70;;
71360;SDS011;59166;48.908;1.870;2023-09-08T20:26:19;9.30;;;4.03;;
71360;SDS011;59166;48.908;1.870;2023-09-08T20:31:20;9.67;;;3.90;;
71360;SDS011;59166;48.908;1.870;2023-09-08T20:36:22;9.05;;;3.92;;
71360;SDS011;59166;48.908;1.870;2023-09-08T20:41:23;8.30;;;4.00;;
71360;SDS011;59166;48.908;1.870;2023-09-08T20:46:24;11.47;;;3.87;;
71360;SDS011;59166;48.908;1.870;2023-09-08T20:51:27;10.07;;;4.05;;
71360;SDS011;59166;48.908;1.870;2023-09-08T20:56:28;9.40;;;4.00;;
71360;SDS011;59166;48.908;1.870;2023-09-08T21:01:29;9.00;;;3.90;;
71360;SDS011;59166;48.908;1.870;2023-09-08T21:06:31;12.93;;;3.88;;
71360;SDS011;59166;48.908;1.870;2023-09-08T21:11:32;10.80;;;3.70;;
71360;SDS011;59166;48.908;1.870;2023-09-08T21:16:33;11.87;;;3.90;;
71360;SDS011;59166;48.908;1.870;2023-09-08T21:21:35;9.98;;;4.00;;
71360;SDS011;59166;48.908;1.870;2023-09-08T21:26:36;12.05;;;3.80;;
71360;SDS011;59166;48.908;1.870;2023-09-08T21:31:37;11.57;;;3.90;;
71360;SDS011;59166;48.908;1.870;2023-09-08T21:36:40;13.45;;;3.95;;
71360;SDS011;59166;48.908;1.870;2023-09-08T21:41:40;10.80;;;3.90;;
71360;SDS011;59166;48.908;1.870;2023-09-08T21:46:41;11.10;;;3.80;;
71360;SDS011;59166;48.908;1.870;2023-09-08T21:51:44;12.50;;;3.90;;
71360;SDS011;59166;48.908;1.870;2023-09-08T21:56:45;10.63;;;4.03;;
71360;SDS011;59166;48.908;1.870;2023-09-08T22:01:46;13.05;;;3.95;;
71360;SDS011;59166;48.908;1.870;2023-09-08T22:06:49;13.73;;;4.00;;
71360;SDS011;59166;48.908;1.870;2023-09-08T22:11:49;12.30;;;4.00;;
71360;SDS011;59166;48.908;1.870;2023-09-08T22:16:51;15.13;;;4.05;;
71360;SDS011;59166;48.908;1.870;2023-09-08T22:21:53;11.73;;;3.90;;
71360;SDS011;59166;48.908;1.870;2023-09-08T22:26:54;9.90;;;4.03;;
71360;SDS011;59166;48.908;1.870;2023-09-08T22:31:55;10.55;;;4.10;;
71360;SDS011;59166;48.908;1.870;2023-09-08T22:36:57;8.80;;;4.10;;
71360;SDS011;59166;48.908;1.870;2023-09-08T22:41:58;13.32;;;4.10;;
71360;SDS011;59166;48.908;1.870;2023-09-08T22:46:59;12.38;;;4.40;;
71360;SDS011;59166;48.908;1.870;2023-09-08T22:52:02;11.93;;;4.60;;
71360;SDS011;59166;48.908;1.870;2023-09-08T22:57:03;12.68;;;4.35;;
71360;SDS011;59166;48.908;1.870;2023-09-08T23:02:04;11.18;;;4.32;;
71360;SDS011;59166;48.908;1.870;2023-09-08T23:07:06;9.87;;;4.10;;
71360;SDS011;59166;48.908;1.870;2023-09-08T23:12:07;9.95;;;4.25;;
71360;SDS011;59166;48.908;1.870;2023-09-08T23:17:09;9.20;;;4.20;;
71360;SDS011;59166;48.908;1.870;2023-09-08T23:22:11;11.70;;;4.60;;
71360;SDS011;59166;48.908;1.870;2023-09-08T23:27:12;10.10;;;4.30;;
71360;SDS011;59166;48.908;1.870;2023-09-08T23:32:13;12.83;;;4.73;;
71360;SDS011;59166;48.908;1.870;2023-09-08T23:37:15;9.98;;;4.22;;
71360;SDS011;59166;48.908;1.870;2023-09-08T23:42:16;10.27;;;4.40;;
71360;SDS011;59166;48.908;1.870;2023-09-08T23:47:17;9.03;;;4.30;;
71360;SDS011;59166;48.908;1.870;2023-09-08T23:52:20;12.13;;;4.80;;
71360;SDS011;59166;48.908;1.870;2023-09-08T23:57:20;10.38;;;4.50;;
